Observations for AMSTERDAM SCHIPHOL, Netherlands (EHAM)

EHAM 242025Z 22020KT 9999 -RADZ FEW018 BKN020 14/10 Q1009 TEMPO 7000 RA BKN018  
EHAM 241955Z 20013KT 170V230 9999 -RADZ FEW025 BKN030 14/10 Q1010 NOSIG 
EHAM 241925Z 20012KT 170V230 9999 FEW025 13/10 Q1010 NOSIG  
EHAM 241855Z 21009KT 9999 -RADZ FEW023 13/10 Q1011 NOSIG
EHAM 241825Z 21012KT 9999 -RADZ FEW030 13/10 Q1011 NOSIG
EHAM 241755Z 22008KT 9999 -RADZ FEW030 13/09 Q1011 NOSIG
EHAM 241725Z 24011KT 9999 FEW022 SCT035 13/09 Q1012 NOSIG   
EHAM 241655Z 23009KT 210V290 9999 FEW022 13/09 Q1012 NOSIG  
EHAM 241625Z 25011KT 9999 FEW022 13/08 Q1013 NOSIG  
EHAM 241555Z 25013KT 220V280 9999 FEW022 13/08 Q1013 NOSIG  
EHAM 241525Z 26012KT 230V290 9999 FEW022 SCT030 14/09 Q1013 NOSIG   
EHAM 241455Z 25014KT 220V290 9999 FEW022 14/09 Q1014 NOSIG  
EHAM 241425Z 25014KT 220V280 9999 FEW020 14/09 Q1014 NOSIG  
EHAM 241355Z 25013KT 9999 SCT018 14/09 Q1014 NOSIG  
EHAM 241325Z 26016KT 9999 SCT018 14/09 Q1015 NOSIG  
EHAM 241255Z 26016KT 9999 SCT018 14/08 Q1015 NOSIG  
EHAM 241225Z 25016KT 220V280 9999 SCT016 14/09 Q1015 NOSIG  
EHAM 241155Z 26014KT 230V290 9999 FEW015 15/10 Q1015 NOSIG  
EHAM 241125Z 25016KT 220V280 9999 FEW012 14/10 Q1015 NOSIG  
EHAM 241055Z 26016KT 220V280 9999 FEW010 BKN030 12/09 Q1015 NOSIG   
EHAM 241025Z 26018KT 230V290 9999 SCT012 SCT020 13/09 Q1015 NOSIG   
EHAM 240955Z 25016KT 220V280 9999 FEW012 14/10 Q1015 NOSIG  
EHAM 240925Z 23014KT 190V260 9999 FEW011 14/10 Q1015 NOSIG  
EHAM 240855Z 25015KT 210V270 9999 SCT009 12/10 Q1015 NOSIG  
EHAM 240825Z 24015KT 210V270 9999 BKN008 12/10 Q1015 BECMG FEW010   
EHAM 240755Z 24013KT 210V270 9999 FEW008 12/10 Q1015 NOSIG  
EHAM 240725Z 24016KT 210V270 9999 FEW007 11/10 Q1014 NOSIG  
EHAM 240655Z 24014KT 210V270 9999 VCSH FEW007 SCT023 11/09 Q1014 RERA NOSIG 
EHAM 240625Z 24013KT 210V270 9999 -RA FEW007 SCT023 10/09 Q1014 TEMPO 7000 RA   
EHAM 240555Z 24013KT 210V270 9000 -RA FEW008 SCT022 10/09 Q1014 TEMPO 7000  
EHAM 240525Z 24016KT 210V290 9000 -RA FEW008 SCT022 10/09 Q1014 TEMPO 7000  
EHAM 240455Z 24016KT 210V270 9999 -RA FEW009 SCT023 11/08 Q1014 TEMPO 7000  
EHAM 240425Z 24016G27KT 9999 -RA FEW012 SCT022 11/08 Q1013 TEMPO 7000   
EHAM 240355Z 23015KT 9999 -RA FEW012 BKN025 11/08 Q1013 TEMPO 7000  
EHAM 240325Z 24016KT 210V270 9999 FEW012 BKN024 11/08 Q1014 TEMPO 7000 -RA  
EHAM 240255Z 24016KT 9999 -RA FEW012 BKN030 11/08 Q1013 NOSIG   
EHAM 240225Z 22012KT 9999 FEW014 BKN033 11/08 Q1013 NOSIG   
EHAM 240155Z 22011KT 9999 FEW016 BKN036 11/08 Q1013 NOSIG   
EHAM 240125Z 21011KT 9999 FEW016 SCT040 10/08 Q1014 NOSIG   
EHAM 240055Z 22013KT 190V250 9999 FEW016 BKN040 10/07 Q1014 NOSIG   
EHAM 240025Z 21013KT 9999 FEW016 SCT040 11/07 Q1014 NOSIG   
EHAM 232355Z 21013KT 9999 FEW016 10/07 Q1014 NOSIG  
EHAM 232325Z 22015KT CAVOK 10/07 Q1015 NOSIG
EHAM 232255Z 21012KT CAVOK 10/07 Q1015 NOSIG
EHAM 232225Z 23016KT CAVOK 11/07 Q1015 NOSIG
EHAM 232155Z 23015KT CAVOK 11/06 Q1015 NOSIG
EHAM 232125Z 23013KT 200V260 CAVOK 11/05 Q1015 NOSIG
EHAM 232055Z 23016KT CAVOK 11/06 Q1015 NOSIG
EHAM 232025Z 23017KT 9999 FEW040 11/06 Q1015 NOSIG  
EHAM 231955Z 24015KT CAVOK 11/06 Q1015 NOSIG